Faribault, MN (55021)

2:14 PM CDT on April 21, 2015 (GMT -0500)
Faribault Municipal | | Change Station
CLOSE
Current Station
Airport
Location: Faribault,
Elevation: 1060 ft
Nearby Weather Stations

Elev 1060 ft 44.33 °N, 93.31 °W | Updated 20 minutes ago

Overcast
Overcast
39 °F
Feels Like 29 °F
N
22
Wind Variable Wind from WNW
Gusts 32 mph

Today
High -- | Low -- °F
--% Chance of Precip.
Yesterday
High -- | Low -- °F
Precip. -- in
6:19 AM 8:04 PM
Waxing Crescent, 12% visible
Pressure 29.64 in
Visibility 10.0 miles
Clouds Scattered Clouds 3600 ft
Mostly Cloudy 4400 ft
Overcast 6000 ft
Windchill 29 °F
Dew Point 25 °F
Humidity 56%
Rainfall 0.00 in
Snow Depth Not available.
UV 3 out of 12
Pollen 8.40 out of 12
Air Quality Not available.
Flu Activity Local Activity
METAR KFBL 211854Z AUTO 29019G28KT 10SM SCT036 BKN044 OVC060 04/M04 A2964 RMK AO2

More Conditions Fewer Conditions

Pressure 29.64 in
Visibility 10.0 miles
Clouds Scattered Clouds 3600 ft
Mostly Cloudy 4400 ft
Overcast 6000 ft
Windchill 29 °F
Dew Point 25 °F
Humidity 56%
Rainfall 0.00 in
Snow Depth Not available.
UV 3 out of 12
Pollen 8.40 out of 12
Air Quality Not available.
Flu Activity Local Activity
METAR KFBL 211854Z AUTO 29019G28KT 10SM SCT036 BKN044 OVC060 04/M04 A2964 RMK AO2

More Conditions Fewer Conditions

10-Day Weather Forecast

Almanac

Astronomy

Apr. 21, 2015 Rise Set
Actual Time
Civil Twilight
Nautical Twilight
Astronomical Twilight
Moon
Length of Visible Light
Length of Day
Tomorrow will be .
, % of the Moon is Illuminated

Today's Extremes

State Highs State Lows

Community

WunderPhotos

Upload Photos

1,815,491 photos uploaded!

WunderBlogs® & News

Nearby

Air Quality

  Air Quality AQ Index Pollutant
Not available.

Snow Depth

Station Depth Elevation

Earthquake Activity

City Distance Mag. Time & Date
Minimum magnitude displayed is 2.5.

Coastal Water Temperatures

Place Temperature

Stations

Nearby Weather Stations

Station Location Temp. Windchill Dew Point Humidity Wind Precip. Elev Updated Type